Airfield :
LOGIN :

Register | Disclaimer

   EN    FR    IT 

 










Legend :    VFR   Marginal VFR   IFR   Intensive IFR   Very Intensive IFR
Visi :
Ceiling :
>= 8 km
>= 3000ft
5 to 8 km
1000 to 3000 ft
1500m to 5 km
500 to 1000 ft
800 to 1500m
200 to 500 ft
< 800m
< 200 ft
Symbols :   Thunderstorms  Fog  Heavy snow  Heavy precipitations  Wind > 20 kt
SIGMETs :     Misc.  Thunderstorms  Icing  Turbulence  Mountain Waves  Volcanic Ashes






- Airport Elevation : 49 ft
- IATA code : GLZ


EHGR - Gilze-Rijen Airbase

CURRENT METAR :
  • 211018Z AUTO 15011KT 120V190 9999 FEW074 OVC100 15/12 Q0999 BLU NOSIG

EXPIRED METARs :
  • 210955Z AUTO 16010KT 120V190 9999 FEW072 BKN081 OVC088 14/12 Q0999 REDZ BLU TEMPO FEW007
  • 210925Z AUTO 16010KT 120V200 9999 DZ SCT073 BKN079 OVC100 13/12 Q1000 BLU TEMPO FEW007
  • 210855Z AUTO 16012KT 090V210 9999 -RA FEW067 SCT073 BKN080 13/12 Q1001 BLU TEMPO FEW007
  • 210825Z AUTO 16011KT 120V210 9999 -SHRA FEW008 BKN061 BKN067 13/12 Q1001 RERA BLU TEMPO FEW007
  • 210756Z AUTO 16011KT 110V200 9999 -RADZ SCT030 OVC037 13/12 Q1001 BLU TEMPO FEW007
  • 210748Z AUTO 17012KT 110V220 9999 -RA FEW007 SCT010 BKN042 13/12 Q1001 GRN TEMPO FEW007

TAF TAF EHGR
Valid from the 21 at 09:00 until the 21 at 21:00 UTC


210812Z 2109/2121 16011KT 9999 -RA FEW015 BKN040
BECMG 2111/2113 22022G37KT
BECMG 2118/2121 21012KT



MET'MAP, your aeronautical weather chart ! - Copyright ORBIFLY December 2007 - Disclaimer

ORBIFLY MET'MAP TEAM :

Programming & Development : Alexandra Zaïnal
Concept & original design : Baudouin d'Aumeries
Assistance for programming : Marc-Olivier Méhu
Technical & hardware support : Manuel Goepfert

Contact : metmap@orbifly.com




SOURCES & CREDITS :

   NOAA